Depesze METAR lotnisk w Polsce

EPWA EPMO EPKK EPLL EPWR EPKT EPGD EPPO EPRZ EPSC EPLB EPBY EPZG EPSY EPCE EPDA EPDE EPIR EPKS EPLK EPLY EPMB EPMI EPMM EPNA EPOK EPPR EPPW EPRA EPSN EPTM

METAR – format kodowanego raportu o pogodzie używany w meteorologii lotniczej i prognozie pogody. METAR jest akronimem od ang. Meteorological Aerodrome Report. Typowy METAR zawiera informację o temperaturze, ciśnieniu, temperaturze punktu rosy, sile i kierunku wiatru, opadzie, pokrywie chmur, wysokości podstawy chmur, widzialności, lecz może zawierać też inne informacje (np. stan dróg startowych).

Postaw mi kawę na buycoffee.to

Warszawa-Okęcie (EPWA)

METAR = EPWA 140500Z VRB02KT 9999 -SHRA BKN053CB 17/15 Q1015 NOSIG

STACJA........... EPWA - Warszawa-Okęcie (WAW)
POMIAR........... Sun Jul 14, 07:00 CEST
WIATR............ zmienny z prędkością 4 km/h
WIDZIALNOŚĆ...... powyżej 10 kilometrów
WARUNKI.......... słaby: deszcz opad przelotny 
CHMURY........... zachmurzenie średnie (5/8-7/8)
TEMPERATURA...... 17°C
T.PUNKTU ROSY.... 15°C
WILGOTNOŚĆ....... 88%
CIŚNIENIE........ 1015 hPa
CIŚN.BEZWZGL..... 1002 hPa
PROGNOZA......... bez nagłych zmian w ciągu 2h

Sprawdź też: Prognoza pogody Warszawa


Warszawa-Modlin (EPMO)

METAR = EPMO 140500Z 07002KT CAVOK 17/15 Q1015 =

STACJA........... EPMO - Warszawa-Modlin (WMI)
POMIAR........... Sun Jul 14, 07:00 CEST
WIATR............ wschodni północno-wschodni (ENE) z prędkością 4 km/h
WIDZIALNOŚĆ...... powyżej 10 kilometrów
CHMURY........... bezchmurne niebo
TEMPERATURA...... 17°C
T.PUNKTU ROSY.... 15°C
WILGOTNOŚĆ....... 88%
CIŚNIENIE........ 1015 hPa
CIŚN.BEZWZGL..... 1003 hPa

Sprawdź też: Prognoza pogody Nowy Dwór Mazowiecki


Kraków-Balice (EPKK)

METAR = EPKK 140500Z VRB05KT 9999 TS SCT017CB BKN026 17/15 Q1015

STACJA........... EPKK - Kraków-Balice (KRK)
POMIAR........... Sun Jul 14, 07:00 CEST
WIATR............ zmienny z prędkością 9 km/h
WIDZIALNOŚĆ...... powyżej 10 kilometrów
WARUNKI.......... burza 
CHMURY........... zachmurzenie średnie (5/8-7/8)
TEMPERATURA...... 17°C
T.PUNKTU ROSY.... 15°C
WILGOTNOŚĆ....... 88%
CIŚNIENIE........ 1015 hPa
CIŚN.BEZWZGL..... 987 hPa

Sprawdź też: Prognoza pogody Kraków


Łódź-Lublinek (EPLL)

METAR = EPLL 140500Z 11006KT 090V150 CAVOK 16/14 Q1015

STACJA........... EPLL - Łódź-Lublinek (LCJ)
POMIAR........... Sun Jul 14, 07:00 CEST
WIATR............ wschodni południowo-wschodni (ESE) z prędkością 11 km/h
WIDZIALNOŚĆ...... powyżej 10 kilometrów
CHMURY........... bezchmurne niebo
TEMPERATURA...... 16°C
T.PUNKTU ROSY.... 14°C
WILGOTNOŚĆ....... 88%
CIŚNIENIE........ 1015 hPa
CIŚN.BEZWZGL..... 993 hPa

Sprawdź też: Prognoza pogody Łódź


Wrocław-Strachowice (EPWR)

METAR = EPWR 140500Z 12007KT 9999 SCT007 BKN011 18/17 Q1015

STACJA........... EPWR - Wrocław-Strachowice (WRO)
POMIAR........... Sun Jul 14, 07:00 CEST
WIATR............ wschodni południowo-wschodni (ESE) z prędkością 13 km/h
WIDZIALNOŚĆ...... powyżej 10 kilometrów
CHMURY........... zachmurzenie średnie (5/8-7/8)
TEMPERATURA...... 18°C
T.PUNKTU ROSY.... 17°C
WILGOTNOŚĆ....... 94%
CIŚNIENIE........ 1015 hPa
CIŚN.BEZWZGL..... 1001 hPa

Sprawdź też: Prognoza pogody Wrocław


Katowice-Pyrzowice (EPKT)

METAR = EPKT 140500Z 06007KT 020V080 9999 -SHRA FEW016 SCT040CB 15/15 Q1015

STACJA........... EPKT - Katowice-Pyrzowice (KTW)
POMIAR........... Sun Jul 14, 07:00 CEST
WIATR............ wschodni północno-wschodni (ENE) z prędkością 13 km/h
WIDZIALNOŚĆ...... powyżej 10 kilometrów
WARUNKI.......... słaby: deszcz opad przelotny 
CHMURY........... zachmurzenie małe (3/8-4/8)
TEMPERATURA...... 15°C
T.PUNKTU ROSY.... 15°C
WILGOTNOŚĆ....... 100%
CIŚNIENIE........ 1015 hPa
CIŚN.BEZWZGL..... 979 hPa

Sprawdź też: Prognoza pogody Katowice


Gdańsk (EPGD)

METAR = EPGD 140500Z VRB02KT CAVOK 15/12 Q1014

STACJA........... EPGD - Gdańsk im. Lecha Wałęsy (GDN)
POMIAR........... Sun Jul 14, 07:00 CEST
WIATR............ zmienny z prędkością 4 km/h
WIDZIALNOŚĆ...... powyżej 10 kilometrów
CHMURY........... bezchmurne niebo
TEMPERATURA...... 15°C
T.PUNKTU ROSY.... 12°C
WILGOTNOŚĆ....... 82%
CIŚNIENIE........ 1014 hPa
CIŚN.BEZWZGL..... 996 hPa

Sprawdź też: Prognoza pogody Gdańsk


Poznań-Ławica (EPPO)

METAR = EPPO 140500Z 16005KT CAVOK 18/14 Q1015

STACJA........... EPPO - Poznań-Ławica (POZ)
POMIAR........... Sun Jul 14, 07:00 CEST
WIATR............ południowo południowo-wschodni (SSE) z prędkością 9 km/h
WIDZIALNOŚĆ...... powyżej 10 kilometrów
CHMURY........... bezchmurne niebo
TEMPERATURA...... 18°C
T.PUNKTU ROSY.... 14°C
WILGOTNOŚĆ....... 78%
CIŚNIENIE........ 1015 hPa
CIŚN.BEZWZGL..... 1004 hPa

Sprawdź też: Prognoza pogody Poznań


Rzeszów-Jasionka (EPRZ)

METAR = EPRZ 140500Z VRB05KT 9999 TS FEW050CB 22/19 Q1012

STACJA........... EPRZ - Rzeszów-Jasionka (RZE)
POMIAR........... Sun Jul 14, 07:00 CEST
WIATR............ zmienny z prędkością 9 km/h
WIDZIALNOŚĆ...... powyżej 10 kilometrów
WARUNKI.......... burza 
CHMURY........... zachmurzenie niewielkie (1/8-2/8)
TEMPERATURA...... 22°C
T.PUNKTU ROSY.... 19°C
WILGOTNOŚĆ....... 83%
CIŚNIENIE........ 1012 hPa
CIŚN.BEZWZGL..... 988 hPa

Sprawdź też: Prognoza pogody Rzeszów


Szczecin-Goleniów (EPSC)

METAR = EPSC 140500Z VRB01KT CAVOK 16/14 Q1014

STACJA........... EPSC - Szczecin-Goleniów (SZZ)
POMIAR........... Sun Jul 14, 07:00 CEST
WIATR............ zmienny z prędkością 2 km/h
WIDZIALNOŚĆ...... powyżej 10 kilometrów
CHMURY........... bezchmurne niebo
TEMPERATURA...... 16°C
T.PUNKTU ROSY.... 14°C
WILGOTNOŚĆ....... 88%
CIŚNIENIE........ 1014 hPa
CIŚN.BEZWZGL..... 1008 hPa

Sprawdź też: Prognoza pogody Szczecin


Lublin-Świdnik (EPLB)

METAR = EPLB 140500Z 03008KT 9999 VCTS SCT060CB 20/18 Q1013 =

STACJA........... EPLB - Lublin-Świdnik (LUZ)
POMIAR........... Sun Jul 14, 07:00 CEST
WIATR............ północno północno-wschodni (NNE) z prędkością 15 km/h
WIDZIALNOŚĆ...... powyżej 10 kilometrów
WARUNKI.......... w pobliżu burza 
CHMURY........... zachmurzenie małe (3/8-4/8)
TEMPERATURA...... 20°C
T.PUNKTU ROSY.... 18°C
WILGOTNOŚĆ....... 88%
CIŚNIENIE........ 1013 hPa
CIŚN.BEZWZGL..... 989 hPa

Sprawdź też: Prognoza pogody Lublin


Bydgoszcz-Szwederowo (EPBY)

METAR = EPBY 140500Z 17003KT 140V210 CAVOK 16/13 Q1015

STACJA........... EPBY - Bydgoszcz-Szwederowo (BZG)
POMIAR........... Sun Jul 14, 07:00 CEST
WIATR............ południowy (S) z prędkością 6 km/h
WIDZIALNOŚĆ...... powyżej 10 kilometrów
CHMURY........... bezchmurne niebo
TEMPERATURA...... 16°C
T.PUNKTU ROSY.... 13°C
WILGOTNOŚĆ....... 83%
CIŚNIENIE........ 1015 hPa
CIŚN.BEZWZGL..... 1006 hPa

Sprawdź też: Prognoza pogody Bydgoszcz


Zielona Góra-Babimost (EPZG)

METAR = EPZG 140500Z VRB02KT CAVOK 17/15 Q1014 =

STACJA........... EPZG - Zielona Góra-Babimost (IEG)
POMIAR........... Sun Jul 14, 07:00 CEST
WIATR............ zmienny z prędkością 4 km/h
WIDZIALNOŚĆ...... powyżej 10 kilometrów
CHMURY........... bezchmurne niebo
TEMPERATURA...... 17°C
T.PUNKTU ROSY.... 15°C
WILGOTNOŚĆ....... 88%
CIŚNIENIE........ 1014 hPa
CIŚN.BEZWZGL..... 1007 hPa

Sprawdź też: Prognoza pogody Zielona Góra


Szymany Olsztyn-Mazury (EPSY)

METAR = EPSY 140500Z VRB01KT 9999 -SHRA SCT022TCU 14/14 Q1015=

STACJA........... EPSY - Olsztyn-Mazury (SZY)
POMIAR........... Sun Jul 14, 07:00 CEST
WIATR............ zmienny z prędkością 2 km/h
WIDZIALNOŚĆ...... powyżej 10 kilometrów
WARUNKI.......... słaby: deszcz opad przelotny 
CHMURY........... zachmurzenie małe (3/8-4/8)
TEMPERATURA...... 14°C
T.PUNKTU ROSY.... 14°C
WILGOTNOŚĆ....... 100%
CIŚNIENIE........ 1015 hPa
CIŚN.BEZWZGL..... 998 hPa

Sprawdź też: Prognoza pogody Olsztyn


Cewice (EPCE)

METAR = 

STACJA........... EPCE - Cewice
POMIAR........... Thu Jan 1, 03:00 CET
BŁĄD............. Dane niedostępne.

Darłowo (EPDA)

METAR = 

STACJA........... EPDA - Darłowo
POMIAR........... Thu Jan 1, 03:00 CET
BŁĄD............. Dane niedostępne.

Dęblin (EPDE)

METAR = 

STACJA........... EPDE - Dęblin
POMIAR........... Thu Jan 1, 03:00 CET
BŁĄD............. Dane niedostępne.

Inowrocław-Latkowo (EPIR)

METAR = 

STACJA........... EPIR - Inowrocław-Latkowo
POMIAR........... Thu Jan 1, 03:00 CET
BŁĄD............. Dane niedostępne.

Poznań-Krzesiny (EPKS)

METAR = 

STACJA........... EPKS - Poznań-Krzesiny
POMIAR........... Thu Jan 1, 03:00 CET
BŁĄD............. Dane niedostępne.

Łask (EPLK)

METAR = 

STACJA........... EPLK - Łask
POMIAR........... Thu Jan 1, 03:00 CET
BŁĄD............. Dane niedostępne.

Łęczyca (EPLY)

METAR = 

STACJA........... EPLY - Łęczyca
POMIAR........... Thu Jan 1, 03:00 CET
BŁĄD............. Dane niedostępne.

Malbork (EPMB)

METAR = 

STACJA........... EPMB - Malbork
POMIAR........... Thu Jan 1, 03:00 CET
BŁĄD............. Dane niedostępne.

Mirosławiec (EPMI)

METAR = 

STACJA........... EPMI - Mirosławiec
POMIAR........... Thu Jan 1, 03:00 CET
BŁĄD............. Dane niedostępne.

Mińsk Mazowiecki (EPMM)

METAR = 

STACJA........... EPMM - Mińsk Mazowiecki
POMIAR........... Thu Jan 1, 03:00 CET
BŁĄD............. Dane niedostępne.

Nadarzyce (EPNA)

METAR = 

STACJA........... EPNA - Nadarzyce
POMIAR........... Thu Jan 1, 03:00 CET
BŁĄD............. Dane niedostępne.

Gdynia-Kosakowo (EPOK)

METAR = 

STACJA........... EPOK - Gdynia-Kosakowo
POMIAR........... Thu Jan 1, 03:00 CET
BŁĄD............. Dane niedostępne.

Pruszcz Gdański (EPPR)

METAR = 

STACJA........... EPPR - Pruszcz Gdański
POMIAR........... Thu Jan 1, 03:00 CET
BŁĄD............. Dane niedostępne.

Powidz (EPPW)

METAR = 

STACJA........... EPPW - Powidz
POMIAR........... Thu Jan 1, 03:00 CET
BŁĄD............. Dane niedostępne.

Radom-Sadków (EPRA)

METAR = EPRA 140500Z VRB05KT 5000 TSRA SCT005 BKN027CB 17/17 Q1015

STACJA........... EPRA - Radom-Sadków
POMIAR........... Sun Jul 14, 07:00 CEST
WIATR............ zmienny z prędkością 9 km/h
WIDZIALNOŚĆ...... 5000 metrów
WARUNKI.......... burza deszcz 
CHMURY........... zachmurzenie średnie (5/8-7/8)
TEMPERATURA...... 17°C
T.PUNKTU ROSY.... 17°C
WILGOTNOŚĆ....... 100%
CIŚNIENIE........ 1015 hPa
CIŚN.BEZWZGL..... 993 hPa

Świdwin (EPSN)

METAR = 

STACJA........... EPSN - Świdwin
POMIAR........... Thu Jan 1, 03:00 CET
BŁĄD............. Dane niedostępne.

Tomaszów Mazowiecki (EPTM)

METAR = 

STACJA........... EPTM - Tomaszów Mazowiecki
POMIAR........... Thu Jan 1, 03:00 CET
BŁĄD............. Dane niedostępne.